sensor_id;sensor_type;location;lat;lon;timestamp;P1;durP1;ratioP1;P2;durP2;ratioP2
57341;SDS011;43175;51.002;18.316;2023-12-04T00:00:45;38.10;;;19.40;;
57341;SDS011;43175;51.002;18.316;2023-12-04T00:03:11;36.10;;;16.80;;
57341;SDS011;43175;51.002;18.316;2023-12-04T00:05:36;36.70;;;16.50;;
57341;SDS011;43175;51.002;18.316;2023-12-04T00:08:02;36.50;;;17.20;;
57341;SDS011;43175;51.002;18.316;2023-12-04T00:10:28;36.40;;;18.00;;
57341;SDS011;43175;51.002;18.316;2023-12-04T00:12:53;37.30;;;17.00;;
57341;SDS011;43175;51.002;18.316;2023-12-04T00:15:19;37.50;;;16.90;;
57341;SDS011;43175;51.002;18.316;2023-12-04T00:17:46;34.40;;;16.80;;
57341;SDS011;43175;51.002;18.316;2023-12-04T00:20:11;37.40;;;17.30;;
57341;SDS011;43175;51.002;18.316;2023-12-04T00:22:37;37.10;;;17.90;;
57341;SDS011;43175;51.002;18.316;2023-12-04T00:25:03;36.90;;;16.80;;
57341;SDS011;43175;51.002;18.316;2023-12-04T00:27:31;37.70;;;16.90;;
57341;SDS011;43175;51.002;18.316;2023-12-04T00:29:57;38.60;;;17.50;;
57341;SDS011;43175;51.002;18.316;2023-12-04T00:32:23;36.30;;;17.10;;
57341;SDS011;43175;51.002;18.316;2023-12-04T00:34:49;43.30;;;20.70;;
57341;SDS011;43175;51.002;18.316;2023-12-04T00:37:14;43.70;;;20.20;;
57341;SDS011;43175;51.002;18.316;2023-12-04T00:39:40;41.40;;;20.40;;
57341;SDS011;43175;51.002;18.316;2023-12-04T00:42:06;40.60;;;21.10;;
57341;SDS011;43175;51.002;18.316;2023-12-04T00:44:31;41.60;;;20.10;;
57341;SDS011;43175;51.002;18.316;2023-12-04T00:46:57;41.10;;;21.30;;
57341;SDS011;43175;51.002;18.316;2023-12-04T00:49:23;39.70;;;19.40;;
57341;SDS011;43175;51.002;18.316;2023-12-04T00:51:49;38.40;;;18.20;;
57341;SDS011;43175;51.002;18.316;2023-12-04T00:54:15;40.80;;;19.40;;
57341;SDS011;43175;51.002;18.316;2023-12-04T00:56:40;37.30;;;17.60;;
57341;SDS011;43175;51.002;18.316;2023-12-04T00:59:09;41.70;;;20.20;;
57341;SDS011;43175;51.002;18.316;2023-12-04T01:01:36;42.30;;;19.20;;
57341;SDS011;43175;51.002;18.316;2023-12-04T01:04:02;42.40;;;20.00;;
57341;SDS011;43175;51.002;18.316;2023-12-04T01:06:28;45.90;;;20.10;;
57341;SDS011;43175;51.002;18.316;2023-12-04T01:08:54;45.40;;;20.90;;
57341;SDS011;43175;51.002;18.316;2023-12-04T01:11:20;45.80;;;21.30;;
57341;SDS011;43175;51.002;18.316;2023-12-04T01:13:46;43.40;;;19.50;;
57341;SDS011;43175;51.002;18.316;2023-12-04T01:16:13;42.30;;;20.30;;
57341;SDS011;43175;51.002;18.316;2023-12-04T01:18:40;42.30;;;19.40;;
57341;SDS011;43175;51.002;18.316;2023-12-04T01:21:06;53.00;;;25.50;;
57341;SDS011;43175;51.002;18.316;2023-12-04T01:23:34;59.50;;;29.30;;
57341;SDS011;43175;51.002;18.316;2023-12-04T01:26:01;48.20;;;23.70;;
57341;SDS011;43175;51.002;18.316;2023-12-04T01:28:27;51.70;;;24.90;;
57341;SDS011;43175;51.002;18.316;2023-12-04T01:30:52;54.70;;;26.50;;
57341;SDS011;43175;51.002;18.316;2023-12-04T01:33:18;47.70;;;22.80;;
57341;SDS011;43175;51.002;18.316;2023-12-04T01:35:44;44.70;;;21.10;;
57341;SDS011;43175;51.002;18.316;2023-12-04T01:38:10;43.00;;;20.20;;
57341;SDS011;43175;51.002;18.316;2023-12-04T01:40:36;39.40;;;19.10;;
57341;SDS011;43175;51.002;18.316;2023-12-04T01:43:01;41.20;;;18.80;;
57341;SDS011;43175;51.002;18.316;2023-12-04T01:45:27;42.30;;;19.40;;
57341;SDS011;43175;51.002;18.316;2023-12-04T01:47:53;41.20;;;20.20;;
57341;SDS011;43175;51.002;18.316;2023-12-04T01:50:19;45.50;;;20.30;;
57341;SDS011;43175;51.002;18.316;2023-12-04T01:52:45;39.00;;;19.00;;
57341;SDS011;43175;51.002;18.316;2023-12-04T01:55:11;40.90;;;18.80;;
57341;SDS011;43175;51.002;18.316;2023-12-04T01:57:37;44.10;;;19.90;;
57341;SDS011;43175;51.002;18.316;2023-12-04T02:00:03;48.20;;;19.90;;
57341;SDS011;43175;51.002;18.316;2023-12-04T02:02:31;41.60;;;18.30;;
57341;SDS011;43175;51.002;18.316;2023-12-04T02:04:57;44.60;;;19.60;;
57341;SDS011;43175;51.002;18.316;2023-12-04T02:07:23;37.60;;;16.50;;
57341;SDS011;43175;51.002;18.316;2023-12-04T02:09:49;40.00;;;17.20;;
57341;SDS011;43175;51.002;18.316;2023-12-04T02:12:15;37.70;;;18.10;;
57341;SDS011;43175;51.002;18.316;2023-12-04T02:14:41;47.70;;;20.40;;
57341;SDS011;43175;51.002;18.316;2023-12-04T02:17:06;52.10;;;21.50;;
57341;SDS011;43175;51.002;18.316;2023-12-04T02:19:33;42.20;;;18.70;;
57341;SDS011;43175;51.002;18.316;2023-12-04T02:21:59;36.20;;;16.40;;
57341;SDS011;43175;51.002;18.316;2023-12-04T02:24:24;34.10;;;15.30;;
57341;SDS011;43175;51.002;18.316;2023-12-04T02:26:52;38.60;;;16.90;;
57341;SDS011;43175;51.002;18.316;2023-12-04T02:29:31;41.30;;;17.90;;
57341;SDS011;43175;51.002;18.316;2023-12-04T02:32:01;43.80;;;19.20;;
57341;SDS011;43175;51.002;18.316;2023-12-04T02:34:29;50.90;;;20.30;;
57341;SDS011;43175;51.002;18.316;2023-12-04T02:36:57;51.80;;;21.60;;
57341;SDS011;43175;51.002;18.316;2023-12-04T02:39:24;47.50;;;19.30;;
57341;SDS011;43175;51.002;18.316;2023-12-04T02:41:50;44.30;;;17.80;;
57341;SDS011;43175;51.002;18.316;2023-12-04T02:44:16;45.60;;;18.10;;
57341;SDS011;43175;51.002;18.316;2023-12-04T02:46:42;43.00;;;17.30;;
57341;SDS011;43175;51.002;18.316;2023-12-04T02:49:08;42.90;;;16.60;;
57341;SDS011;43175;51.002;18.316;2023-12-04T02:51:34;38.60;;;16.20;;
57341;SDS011;43175;51.002;18.316;2023-12-04T02:53:59;40.10;;;14.90;;
57341;SDS011;43175;51.002;18.316;2023-12-04T02:56:25;42.20;;;15.40;;
57341;SDS011;43175;51.002;18.316;2023-12-04T02:58:51;38.60;;;15.40;;
57341;SDS011;43175;51.002;18.316;2023-12-04T03:01:16;43.30;;;16.50;;
57341;SDS011;43175;51.002;18.316;2023-12-04T03:03:42;44.00;;;15.90;;
57341;SDS011;43175;51.002;18.316;2023-12-04T03:06:08;39.90;;;16.60;;
57341;SDS011;43175;51.002;18.316;2023-12-04T03:08:34;45.40;;;17.30;;
57341;SDS011;43175;51.002;18.316;2023-12-04T03:11:01;46.80;;;19.10;;
57341;SDS011;43175;51.002;18.316;2023-12-04T03:13:28;55.20;;;21.00;;
57341;SDS011;43175;51.002;18.316;2023-12-04T03:15:53;66.30;;;23.40;;
57341;SDS011;43175;51.002;18.316;2023-12-04T03:18:19;55.40;;;21.70;;
57341;SDS011;43175;51.002;18.316;2023-12-04T03:20:44;48.10;;;18.10;;
57341;SDS011;43175;51.002;18.316;2023-12-04T03:23:10;46.50;;;18.00;;
57341;SDS011;43175;51.002;18.316;2023-12-04T03:25:36;47.20;;;18.70;;
57341;SDS011;43175;51.002;18.316;2023-12-04T03:28:01;43.50;;;18.20;;
57341;SDS011;43175;51.002;18.316;2023-12-04T03:30:27;44.90;;;17.30;;
57341;SDS011;43175;51.002;18.316;2023-12-04T03:32:53;43.70;;;17.10;;
57341;SDS011;43175;51.002;18.316;2023-12-04T03:35:19;51.20;;;19.40;;
57341;SDS011;43175;51.002;18.316;2023-12-04T03:37:45;55.40;;;20.90;;
57341;SDS011;43175;51.002;18.316;2023-12-04T03:40:11;47.50;;;18.80;;
57341;SDS011;43175;51.002;18.316;2023-12-04T03:42:37;42.70;;;16.70;;
57341;SDS011;43175;51.002;18.316;2023-12-04T03:45:03;50.10;;;17.90;;
57341;SDS011;43175;51.002;18.316;2023-12-04T03:47:29;48.60;;;19.50;;
57341;SDS011;43175;51.002;18.316;2023-12-04T03:49:55;52.10;;;20.50;;
57341;SDS011;43175;51.002;18.316;2023-12-04T03:52:21;45.40;;;18.10;;
57341;SDS011;43175;51.002;18.316;2023-12-04T03:54:47;41.10;;;15.60;;
57341;SDS011;43175;51.002;18.316;2023-12-04T03:57:13;34.30;;;13.80;;
57341;SDS011;43175;51.002;18.316;2023-12-04T03:59:39;37.80;;;14.60;;
57341;SDS011;43175;51.002;18.316;2023-12-04T04:02:04;36.90;;;12.80;;
57341;SDS011;43175;51.002;18.316;2023-12-04T04:04:31;33.00;;;13.20;;
57341;SDS011;43175;51.002;18.316;2023-12-04T04:06:56;34.80;;;12.20;;
57341;SDS011;43175;51.002;18.316;2023-12-04T04:09:22;40.00;;;13.80;;
57341;SDS011;43175;51.002;18.316;2023-12-04T04:11:48;34.40;;;13.50;;
57341;SDS011;43175;51.002;18.316;2023-12-04T04:14:14;31.50;;;12.50;;
57341;SDS011;43175;51.002;18.316;2023-12-04T04:16:40;34.60;;;13.10;;
57341;SDS011;43175;51.002;18.316;2023-12-04T04:19:06;33.50;;;12.50;;
57341;SDS011;43175;51.002;18.316;2023-12-04T04:21:32;33.60;;;12.30;;
57341;SDS011;43175;51.002;18.316;2023-12-04T04:23:59;32.70;;;12.40;;
57341;SDS011;43175;51.002;18.316;2023-12-04T04:26:25;31.40;;;12.10;;
57341;SDS011;43175;51.002;18.316;2023-12-04T04:28:51;34.10;;;13.00;;
57341;SDS011;43175;51.002;18.316;2023-12-04T04:31:17;31.30;;;12.60;;
57341;SDS011;43175;51.002;18.316;2023-12-04T04:33:42;34.30;;;13.80;;
57341;SDS011;43175;51.002;18.316;2023-12-04T04:36:09;36.90;;;14.10;;
57341;SDS011;43175;51.002;18.316;2023-12-04T04:38:35;36.60;;;13.90;;
57341;SDS011;43175;51.002;18.316;2023-12-04T04:41:00;34.00;;;13.30;;
57341;SDS011;43175;51.002;18.316;2023-12-04T04:43:26;39.20;;;14.70;;
57341;SDS011;43175;51.002;18.316;2023-12-04T04:45:53;38.90;;;15.10;;
57341;SDS011;43175;51.002;18.316;2023-12-04T04:48:18;38.30;;;16.00;;
57341;SDS011;43175;51.002;18.316;2023-12-04T04:50:45;40.40;;;15.50;;
57341;SDS011;43175;51.002;18.316;2023-12-04T04:53:10;35.80;;;14.50;;
57341;SDS011;43175;51.002;18.316;2023-12-04T04:55:36;36.80;;;13.90;;
57341;SDS011;43175;51.002;18.316;2023-12-04T04:58:01;34.90;;;14.00;;
57341;SDS011;43175;51.002;18.316;2023-12-04T05:00:27;35.90;;;13.60;;
57341;SDS011;43175;51.002;18.316;2023-12-04T05:02:53;36.00;;;13.10;;
57341;SDS011;43175;51.002;18.316;2023-12-04T05:05:19;34.90;;;14.20;;
57341;SDS011;43175;51.002;18.316;2023-12-04T05:07:45;34.30;;;13.10;;
57341;SDS011;43175;51.002;18.316;2023-12-04T05:10:10;34.40;;;14.60;;
57341;SDS011;43175;51.002;18.316;2023-12-04T05:12:36;36.60;;;13.20;;
57341;SDS011;43175;51.002;18.316;2023-12-04T05:15:04;36.20;;;14.80;;
57341;SDS011;43175;51.002;18.316;2023-12-04T05:17:30;41.10;;;15.30;;
57341;SDS011;43175;51.002;18.316;2023-12-04T05:19:55;36.60;;;14.90;;
57341;SDS011;43175;51.002;18.316;2023-12-04T05:22:22;34.70;;;13.80;;
57341;SDS011;43175;51.002;18.316;2023-12-04T05:24:47;38.80;;;15.00;;
57341;SDS011;43175;51.002;18.316;2023-12-04T05:27:13;38.20;;;15.20;;
57341;SDS011;43175;51.002;18.316;2023-12-04T05:29:38;39.20;;;14.20;;
57341;SDS011;43175;51.002;18.316;2023-12-04T05:32:04;37.10;;;13.60;;
57341;SDS011;43175;51.002;18.316;2023-12-04T05:34:30;40.50;;;15.10;;
57341;SDS011;43175;51.002;18.316;2023-12-04T05:36:56;34.50;;;14.00;;
57341;SDS011;43175;51.002;18.316;2023-12-04T05:39:21;40.20;;;14.60;;
57341;SDS011;43175;51.002;18.316;2023-12-04T05:41:47;43.40;;;15.10;;
57341;SDS011;43175;51.002;18.316;2023-12-04T05:44:13;41.70;;;14.90;;
57341;SDS011;43175;51.002;18.316;2023-12-04T05:46:39;45.20;;;17.20;;
57341;SDS011;43175;51.002;18.316;2023-12-04T05:49:04;46.50;;;16.70;;
57341;SDS011;43175;51.002;18.316;2023-12-04T05:51:30;38.10;;;14.00;;
57341;SDS011;43175;51.002;18.316;2023-12-04T05:53:57;38.20;;;15.30;;
57341;SDS011;43175;51.002;18.316;2023-12-04T05:56:22;37.00;;;14.20;;
57341;SDS011;43175;51.002;18.316;2023-12-04T05:58:48;40.00;;;15.70;;
57341;SDS011;43175;51.002;18.316;2023-12-04T06:01:14;42.00;;;16.20;;
57341;SDS011;43175;51.002;18.316;2023-12-04T06:03:40;39.50;;;15.10;;
57341;SDS011;43175;51.002;18.316;2023-12-04T06:06:07;38.70;;;15.40;;
57341;SDS011;43175;51.002;18.316;2023-12-04T06:08:33;39.70;;;15.90;;
57341;SDS011;43175;51.002;18.316;2023-12-04T06:10:58;43.50;;;16.00;;
57341;SDS011;43175;51.002;18.316;2023-12-04T06:13:24;37.70;;;15.80;;
57341;SDS011;43175;51.002;18.316;2023-12-04T06:15:50;41.30;;;16.10;;
57341;SDS011;43175;51.002;18.316;2023-12-04T06:18:16;43.10;;;17.10;;
57341;SDS011;43175;51.002;18.316;2023-12-04T06:20:42;49.60;;;18.70;;
57341;SDS011;43175;51.002;18.316;2023-12-04T06:23:08;44.20;;;17.50;;
57341;SDS011;43175;51.002;18.316;2023-12-04T06:25:34;40.80;;;16.30;;
57341;SDS011;43175;51.002;18.316;2023-12-04T06:28:00;50.60;;;16.90;;
57341;SDS011;43175;51.002;18.316;2023-12-04T06:30:26;42.10;;;16.60;;
57341;SDS011;43175;51.002;18.316;2023-12-04T06:32:53;47.50;;;18.20;;
57341;SDS011;43175;51.002;18.316;2023-12-04T06:38:07;47.70;;;17.60;;
57341;SDS011;43175;51.002;18.316;2023-12-04T06:40:33;44.00;;;16.50;;
57341;SDS011;43175;51.002;18.316;2023-12-04T06:43:00;48.90;;;17.00;;
57341;SDS011;43175;51.002;18.316;2023-12-04T06:45:26;44.90;;;15.90;;
57341;SDS011;43175;51.002;18.316;2023-12-04T06:47:52;48.10;;;19.00;;
57341;SDS011;43175;51.002;18.316;2023-12-04T06:50:19;53.20;;;19.70;;
57341;SDS011;43175;51.002;18.316;2023-12-04T06:52:45;58.20;;;21.00;;
57341;SDS011;43175;51.002;18.316;2023-12-04T06:55:12;55.00;;;19.80;;
57341;SDS011;43175;51.002;18.316;2023-12-04T06:57:38;53.50;;;19.10;;
57341;SDS011;43175;51.002;18.316;2023-12-04T07:00:04;58.40;;;21.00;;
57341;SDS011;43175;51.002;18.316;2023-12-04T07:02:37;52.90;;;20.30;;
57341;SDS011;43175;51.002;18.316;2023-12-04T07:05:03;55.30;;;19.40;;
57341;SDS011;43175;51.002;18.316;2023-12-04T07:07:29;43.50;;;17.10;;
57341;SDS011;43175;51.002;18.316;2023-12-04T07:09:55;57.10;;;20.10;;
57341;SDS011;43175;51.002;18.316;2023-12-04T07:12:21;48.10;;;17.70;;
57341;SDS011;43175;51.002;18.316;2023-12-04T07:14:47;47.90;;;17.80;;
57341;SDS011;43175;51.002;18.316;2023-12-04T07:17:12;48.90;;;19.10;;
57341;SDS011;43175;51.002;18.316;2023-12-04T07:19:40;67.70;;;27.30;;
57341;SDS011;43175;51.002;18.316;2023-12-04T07:22:06;56.80;;;24.50;;
57341;SDS011;43175;51.002;18.316;2023-12-04T07:24:32;56.20;;;23.90;;
57341;SDS011;43175;51.002;18.316;2023-12-04T07:26:58;72.90;;;29.30;;
57341;SDS011;43175;51.002;18.316;2023-12-04T07:29:24;53.40;;;23.70;;
57341;SDS011;43175;51.002;18.316;2023-12-04T07:31:50;49.00;;;20.20;;
57341;SDS011;43175;51.002;18.316;2023-12-04T07:34:16;42.30;;;17.70;;
57341;SDS011;43175;51.002;18.316;2023-12-04T07:36:42;42.90;;;17.30;;
57341;SDS011;43175;51.002;18.316;2023-12-04T07:39:10;44.80;;;18.90;;
57341;SDS011;43175;51.002;18.316;2023-12-04T07:41:36;43.50;;;17.10;;
57341;SDS011;43175;51.002;18.316;2023-12-04T07:44:02;47.70;;;18.20;;
57341;SDS011;43175;51.002;18.316;2023-12-04T07:46:29;46.70;;;19.60;;
57341;SDS011;43175;51.002;18.316;2023-12-04T07:48:55;49.70;;;19.20;;
57341;SDS011;43175;51.002;18.316;2023-12-04T07:51:21;45.50;;;18.70;;
57341;SDS011;43175;51.002;18.316;2023-12-04T07:53:46;49.40;;;20.50;;
57341;SDS011;43175;51.002;18.316;2023-12-04T07:56:12;54.90;;;24.60;;
57341;SDS011;43175;51.002;18.316;2023-12-04T07:58:38;50.80;;;21.60;;
57341;SDS011;43175;51.002;18.316;2023-12-04T08:01:04;52.70;;;22.80;;
57341;SDS011;43175;51.002;18.316;2023-12-04T08:03:31;53.10;;;23.30;;
57341;SDS011;43175;51.002;18.316;2023-12-04T08:05:57;52.90;;;24.90;;
57341;SDS011;43175;51.002;18.316;2023-12-04T08:08:24;60.20;;;25.20;;
57341;SDS011;43175;51.002;18.316;2023-12-04T08:10:50;52.00;;;25.30;;
57341;SDS011;43175;51.002;18.316;2023-12-04T08:13:16;71.50;;;33.40;;
57341;SDS011;43175;51.002;18.316;2023-12-04T08:15:42;73.10;;;33.50;;
57341;SDS011;43175;51.002;18.316;2023-12-04T08:18:09;79.70;;;36.80;;
57341;SDS011;43175;51.002;18.316;2023-12-04T08:20:34;71.00;;;34.80;;
57341;SDS011;43175;51.002;18.316;2023-12-04T08:23:00;61.60;;;29.00;;
57341;SDS011;43175;51.002;18.316;2023-12-04T08:25:26;54.00;;;24.00;;
57341;SDS011;43175;51.002;18.316;2023-12-04T08:27:52;51.30;;;23.00;;
57341;SDS011;43175;51.002;18.316;2023-12-04T08:30:17;52.20;;;22.10;;
57341;SDS011;43175;51.002;18.316;2023-12-04T08:32:43;51.80;;;23.40;;
57341;SDS011;43175;51.002;18.316;2023-12-04T08:35:09;53.60;;;23.50;;
57341;SDS011;43175;51.002;18.316;2023-12-04T08:37:35;59.60;;;25.00;;
57341;SDS011;43175;51.002;18.316;2023-12-04T08:40:01;53.10;;;23.50;;
57341;SDS011;43175;51.002;18.316;2023-12-04T08:42:28;56.90;;;22.90;;
57341;SDS011;43175;51.002;18.316;2023-12-04T08:44:54;54.30;;;24.60;;
57341;SDS011;43175;51.002;18.316;2023-12-04T08:47:20;61.80;;;27.10;;
57341;SDS011;43175;51.002;18.316;2023-12-04T08:49:46;63.00;;;27.00;;
57341;SDS011;43175;51.002;18.316;2023-12-04T08:52:12;63.20;;;27.70;;
57341;SDS011;43175;51.002;18.316;2023-12-04T08:54:41;57.50;;;25.50;;
57341;SDS011;43175;51.002;18.316;2023-12-04T08:57:08;65.50;;;28.10;;
57341;SDS011;43175;51.002;18.316;2023-12-04T08:59:34;65.30;;;27.20;;
57341;SDS011;43175;51.002;18.316;2023-12-04T09:02:00;64.50;;;28.50;;
57341;SDS011;43175;51.002;18.316;2023-12-04T09:04:29;63.00;;;28.00;;
57341;SDS011;43175;51.002;18.316;2023-12-04T09:06:57;59.80;;;27.20;;
57341;SDS011;43175;51.002;18.316;2023-12-04T09:09:22;61.90;;;27.30;;
57341;SDS011;43175;51.002;18.316;2023-12-04T09:11:48;62.00;;;27.90;;
57341;SDS011;43175;51.002;18.316;2023-12-04T09:14:14;65.70;;;28.30;;
57341;SDS011;43175;51.002;18.316;2023-12-04T09:16:39;64.30;;;27.20;;
57341;SDS011;43175;51.002;18.316;2023-12-04T09:19:05;69.30;;;29.00;;
57341;SDS011;43175;51.002;18.316;2023-12-04T09:21:31;59.00;;;26.40;;
57341;SDS011;43175;51.002;18.316;2023-12-04T09:23:57;60.20;;;26.60;;
57341;SDS011;43175;51.002;18.316;2023-12-04T09:26:22;63.80;;;26.90;;
57341;SDS011;43175;51.002;18.316;2023-12-04T09:28:49;60.50;;;26.00;;
57341;SDS011;43175;51.002;18.316;2023-12-04T09:31:14;67.50;;;29.70;;
57341;SDS011;43175;51.002;18.316;2023-12-04T09:33:40;79.30;;;33.00;;
57341;SDS011;43175;51.002;18.316;2023-12-04T09:36:06;66.20;;;28.80;;
57341;SDS011;43175;51.002;18.316;2023-12-04T09:38:33;62.30;;;28.00;;
57341;SDS011;43175;51.002;18.316;2023-12-04T09:41:00;61.60;;;26.10;;
57341;SDS011;43175;51.002;18.316;2023-12-04T09:43:30;58.90;;;26.80;;
57341;SDS011;43175;51.002;18.316;2023-12-04T09:45:57;65.70;;;28.80;;
57341;SDS011;43175;51.002;18.316;2023-12-04T09:48:26;67.30;;;30.00;;
57341;SDS011;43175;51.002;18.316;2023-12-04T09:50:53;62.90;;;28.20;;
57341;SDS011;43175;51.002;18.316;2023-12-04T09:53:19;58.20;;;25.60;;
57341;SDS011;43175;51.002;18.316;2023-12-04T09:55:48;59.20;;;25.90;;
57341;SDS011;43175;51.002;18.316;2023-12-04T09:58:15;59.20;;;25.60;;
57341;SDS011;43175;51.002;18.316;2023-12-04T10:00:41;52.40;;;23.50;;
57341;SDS011;43175;51.002;18.316;2023-12-04T10:03:08;48.00;;;23.00;;
57341;SDS011;43175;51.002;18.316;2023-12-04T10:05:35;52.80;;;22.40;;
57341;SDS011;43175;51.002;18.316;2023-12-04T10:08:00;51.30;;;23.70;;
57341;SDS011;43175;51.002;18.316;2023-12-04T10:10:26;52.70;;;23.20;;
57341;SDS011;43175;51.002;18.316;2023-12-04T10:12:52;50.80;;;23.20;;
57341;SDS011;43175;51.002;18.316;2023-12-04T10:15:17;49.90;;;23.30;;
57341;SDS011;43175;51.002;18.316;2023-12-04T10:17:43;49.10;;;22.60;;
57341;SDS011;43175;51.002;18.316;2023-12-04T10:20:10;55.10;;;25.40;;
57341;SDS011;43175;51.002;18.316;2023-12-04T10:22:40;62.00;;;27.60;;
57341;SDS011;43175;51.002;18.316;2023-12-04T10:25:20;78.40;;;31.90;;
57341;SDS011;43175;51.002;18.316;2023-12-04T10:27:46;64.20;;;28.30;;
57341;SDS011;43175;51.002;18.316;2023-12-04T10:30:23;61.50;;;27.20;;
57341;SDS011;43175;51.002;18.316;2023-12-04T10:33:02;54.40;;;24.10;;
57341;SDS011;43175;51.002;18.316;2023-12-04T10:35:33;53.40;;;24.50;;
57341;SDS011;43175;51.002;18.316;2023-12-04T10:38:04;64.40;;;28.10;;
57341;SDS011;43175;51.002;18.316;2023-12-04T10:40:31;63.30;;;27.30;;
57341;SDS011;43175;51.002;18.316;2023-12-04T10:43:11;59.90;;;25.70;;
57341;SDS011;43175;51.002;18.316;2023-12-04T10:45:42;67.60;;;28.20;;
57341;SDS011;43175;51.002;18.316;2023-12-04T10:48:09;73.20;;;30.60;;
57341;SDS011;43175;51.002;18.316;2023-12-04T10:50:36;85.80;;;31.10;;
57341;SDS011;43175;51.002;18.316;2023-12-04T10:53:03;75.70;;;27.90;;
57341;SDS011;43175;51.002;18.316;2023-12-04T10:55:30;58.40;;;24.80;;
57341;SDS011;43175;51.002;18.316;2023-12-04T10:57:56;61.30;;;26.20;;
57341;SDS011;43175;51.002;18.316;2023-12-04T11:00:22;52.30;;;23.40;;
57341;SDS011;43175;51.002;18.316;2023-12-04T11:02:49;49.80;;;23.00;;
57341;SDS011;43175;51.002;18.316;2023-12-04T11:05:18;47.80;;;21.90;;
57341;SDS011;43175;51.002;18.316;2023-12-04T11:07:48;49.30;;;22.90;;
57341;SDS011;43175;51.002;18.316;2023-12-04T11:10:22;53.10;;;24.20;;
57341;SDS011;43175;51.002;18.316;2023-12-04T11:12:51;47.80;;;22.30;;
57341;SDS011;43175;51.002;18.316;2023-12-04T11:15:22;49.50;;;22.80;;
57341;SDS011;43175;51.002;18.316;2023-12-04T11:17:51;58.10;;;24.60;;
57341;SDS011;43175;51.002;18.316;2023-12-04T11:20:20;64.50;;;25.90;;
57341;SDS011;43175;51.002;18.316;2023-12-04T11:22:47;55.20;;;24.00;;
57341;SDS011;43175;51.002;18.316;2023-12-04T11:25:13;54.20;;;24.10;;
57341;SDS011;43175;51.002;18.316;2023-12-04T11:27:39;55.90;;;23.70;;
57341;SDS011;43175;51.002;18.316;2023-12-04T11:30:06;100.20;;;40.10;;
57341;SDS011;43175;51.002;18.316;2023-12-04T11:32:42;153.30;;;59.70;;
57341;SDS011;43175;51.002;18.316;2023-12-04T11:35:13;107.80;;;47.50;;
57341;SDS011;43175;51.002;18.316;2023-12-04T11:37:40;90.90;;;40.50;;
57341;SDS011;43175;51.002;18.316;2023-12-04T11:40:10;87.10;;;38.90;;
57341;SDS011;43175;51.002;18.316;2023-12-04T11:42:37;66.00;;;31.80;;
57341;SDS011;43175;51.002;18.316;2023-12-04T11:45:04;59.30;;;29.70;;
57341;SDS011;43175;51.002;18.316;2023-12-04T11:47:46;48.50;;;26.30;;
57341;SDS011;43175;51.002;18.316;2023-12-04T11:50:22;52.30;;;28.00;;
57341;SDS011;43175;51.002;18.316;2023-12-04T11:52:50;50.50;;;25.60;;
57341;SDS011;43175;51.002;18.316;2023-12-04T11:55:17;58.10;;;32.30;;
57341;SDS011;43175;51.002;18.316;2023-12-04T11:57:43;53.10;;;29.60;;
57341;SDS011;43175;51.002;18.316;2023-12-04T12:05:20;44.10;;;23.50;;
57341;SDS011;43175;51.002;18.316;2023-12-04T12:07:46;53.00;;;28.90;;
57341;SDS011;43175;51.002;18.316;2023-12-04T12:10:12;52.70;;;30.70;;
57341;SDS011;43175;51.002;18.316;2023-12-04T12:12:42;45.40;;;24.40;;
57341;SDS011;43175;51.002;18.316;2023-12-04T12:15:09;46.90;;;22.20;;
57341;SDS011;43175;51.002;18.316;2023-12-04T12:17:37;41.40;;;21.80;;
57341;SDS011;43175;51.002;18.316;2023-12-04T12:20:07;41.60;;;21.10;;
57341;SDS011;43175;51.002;18.316;2023-12-04T12:22:34;41.50;;;21.50;;
57341;SDS011;43175;51.002;18.316;2023-12-04T12:25:03;38.80;;;19.20;;
57341;SDS011;43175;51.002;18.316;2023-12-04T12:27:30;44.30;;;21.40;;
57341;SDS011;43175;51.002;18.316;2023-12-04T12:29:56;40.20;;;20.20;;
57341;SDS011;43175;51.002;18.316;2023-12-04T12:32:22;40.80;;;21.70;;
57341;SDS011;43175;51.002;18.316;2023-12-04T12:34:48;43.70;;;22.20;;
57341;SDS011;43175;51.002;18.316;2023-12-04T12:37:14;45.60;;;22.20;;
57341;SDS011;43175;51.002;18.316;2023-12-04T12:39:40;40.90;;;21.80;;
57341;SDS011;43175;51.002;18.316;2023-12-04T12:42:06;43.60;;;21.80;;
57341;SDS011;43175;51.002;18.316;2023-12-04T12:44:36;42.10;;;21.50;;
57341;SDS011;43175;51.002;18.316;2023-12-04T12:47:05;38.00;;;19.90;;
57341;SDS011;43175;51.002;18.316;2023-12-04T12:49:31;39.20;;;19.90;;
57341;SDS011;43175;51.002;18.316;2023-12-04T12:51:57;35.90;;;18.60;;
57341;SDS011;43175;51.002;18.316;2023-12-04T12:54:25;37.30;;;18.00;;
57341;SDS011;43175;51.002;18.316;2023-12-04T12:56:51;39.30;;;17.90;;
57341;SDS011;43175;51.002;18.316;2023-12-04T12:59:16;35.30;;;17.60;;
57341;SDS011;43175;51.002;18.316;2023-12-04T13:01:43;37.40;;;19.20;;
57341;SDS011;43175;51.002;18.316;2023-12-04T13:04:13;36.10;;;18.20;;
57341;SDS011;43175;51.002;18.316;2023-12-04T13:06:40;42.90;;;20.00;;
57341;SDS011;43175;51.002;18.316;2023-12-04T13:09:06;41.40;;;20.00;;
57341;SDS011;43175;51.002;18.316;2023-12-04T13:11:32;42.80;;;20.90;;
57341;SDS011;43175;51.002;18.316;2023-12-04T13:13:58;52.30;;;23.60;;
57341;SDS011;43175;51.002;18.316;2023-12-04T13:16:24;45.70;;;22.20;;
57341;SDS011;43175;51.002;18.316;2023-12-04T13:18:50;50.20;;;24.10;;
57341;SDS011;43175;51.002;18.316;2023-12-04T13:21:16;52.00;;;25.80;;
57341;SDS011;43175;51.002;18.316;2023-12-04T13:23:42;54.10;;;27.50;;
57341;SDS011;43175;51.002;18.316;2023-12-04T13:26:07;57.00;;;29.50;;
57341;SDS011;43175;51.002;18.316;2023-12-04T13:28:36;48.20;;;23.90;;
57341;SDS011;43175;51.002;18.316;2023-12-04T13:31:04;39.60;;;18.50;;
57341;SDS011;43175;51.002;18.316;2023-12-04T13:33:30;39.30;;;19.10;;
57341;SDS011;43175;51.002;18.316;2023-12-04T13:35:57;39.40;;;17.10;;
57341;SDS011;43175;51.002;18.316;2023-12-04T13:38:23;43.90;;;20.80;;
57341;SDS011;43175;51.002;18.316;2023-12-04T13:40:49;46.90;;;21.60;;
57341;SDS011;43175;51.002;18.316;2023-12-04T13:43:26;48.10;;;23.20;;
57341;SDS011;43175;51.002;18.316;2023-12-04T13:46:10;49.60;;;23.50;;
57341;SDS011;43175;51.002;18.316;2023-12-04T13:48:36;42.40;;;19.70;;
57341;SDS011;43175;51.002;18.316;2023-12-04T13:51:06;42.20;;;19.70;;
57341;SDS011;43175;51.002;18.316;2023-12-04T13:53:34;39.00;;;18.50;;
57341;SDS011;43175;51.002;18.316;2023-12-04T13:56:00;38.90;;;19.10;;
57341;SDS011;43175;51.002;18.316;2023-12-04T13:58:26;43.90;;;19.40;;
57341;SDS011;43175;51.002;18.316;2023-12-04T14:01:18;53.60;;;22.90;;
57341;SDS011;43175;51.002;18.316;2023-12-04T14:03:48;61.40;;;27.60;;
57341;SDS011;43175;51.002;18.316;2023-12-04T14:06:13;60.00;;;26.80;;
57341;SDS011;43175;51.002;18.316;2023-12-04T14:08:42;70.60;;;29.50;;
57341;SDS011;43175;51.002;18.316;2023-12-04T14:11:08;57.30;;;25.80;;
57341;SDS011;43175;51.002;18.316;2023-12-04T14:13:36;47.60;;;20.20;;